Time;durP1;ratioP1;P1;durP2;ratioP2;P2;SDS_P1;SDS_P2;PMS_P1;PMS_P2;Temp;Humidity;BMP_temperature;BMP_pressure;BME280_temperature;BME280_humidity;BME280_pressure;Samples;Min_cycle;Max_cycle;Signal;HPM_P1;HPM_P2
2022/11/12 00:01:18;;;;;;;4.22;1.90;;;;;;;11.46;68.37;101128.56;3144677;28;20117;-74
2022/11/12 00:02:49;;;;;;;2.53;1.55;;;;;;;11.45;68.28;101126.88;3145333;28;20056;-75
2022/11/12 00:04:22;;;;;;;4.07;2.15;;;;;;;11.45;67.84;101125.13;3144909;28;20131;-74
2022/11/12 00:05:54;;;;;;;3.75;2.10;;;;;;;11.38;67.89;101118.34;3144601;28;20193;-74
2022/11/12 00:07:25;;;;;;;3.78;1.58;;;;;;;11.44;68.01;101128.59;3145254;28;20060;-74
2022/11/12 00:08:56;;;;;;;3.88;1.95;;;;;;;11.44;68.10;101119.94;3144894;28;20044;-74
2022/11/12 00:10:28;;;;;;;3.03;1.88;;;;;;;11.43;67.84;101123.44;3144719;28;20063;-74
2022/11/12 00:12:00;;;;;;;3.88;1.70;;;;;;;11.41;67.94;101123.47;3140149;28;20130;-74
2022/11/12 00:13:32;;;;;;;3.33;1.60;;;;;;;11.40;67.93;101121.78;3139511;28;20054;-74
2022/11/12 00:15:05;;;;;;;3.17;1.80;;;;;;;11.39;68.31;101122.69;3144755;28;20105;-75
2022/11/12 00:16:37;;;;;;;3.92;1.83;;;;;;;11.38;68.39;101115.72;3145315;28;20102;-73
2022/11/12 00:18:08;;;;;;;4.22;1.65;;;;;;;11.39;68.61;101122.69;3144701;28;20444;-75
2022/11/12 00:19:41;;;;;;;4.00;1.50;;;;;;;11.40;68.45;101119.16;3145114;28;20521;-74
2022/11/12 00:21:13;;;;;;;3.22;2.05;;;;;;;11.38;68.63;101120.94;3145668;28;20067;-74
2022/11/12 00:22:43;;;;;;;3.63;2.13;;;;;;;11.39;69.17;101117.47;3146781;28;20044;-74
2022/11/12 00:24:15;;;;;;;3.25;1.80;;;;;;;11.40;69.02;101119.16;3145774;28;20139;-74
2022/11/12 00:25:47;;;;;;;3.22;1.90;;;;;;;11.42;69.06;101122.59;3144860;28;20447;-74
2022/11/12 00:27:18;;;;;;;3.58;2.08;;;;;;;11.44;69.69;101115.56;3138671;28;20741;-75
2022/11/12 00:28:50;;;;;;;3.03;1.73;;;;;;;11.45;69.33;101106.88;3130097;28;20048;-74
2022/11/12 00:30:21;;;;;;;3.53;2.13;;;;;;;11.44;69.21;101115.56;3133987;28;20067;-74
2022/11/12 00:31:53;;;;;;;3.22;1.90;;;;;;;11.45;69.62;101124.28;3144456;28;20044;-75
2022/11/12 00:33:24;;;;;;;6.20;2.30;;;;;;;11.44;69.47;101126.00;3135753;28;20060;-74
2022/11/12 00:34:58;;;;;;;4.93;2.50;;;;;;;11.45;69.94;101119.06;3144372;28;20056;-74
2022/11/12 00:36:30;;;;;;;2.40;1.60;;;;;;;11.45;69.83;101119.91;3139365;28;20102;-75
2022/11/12 00:38:02;;;;;;;2.67;2.17;;;;;;;11.45;69.37;101121.66;3119923;28;20072;-75
2022/11/12 00:39:34;;;;;;;4.07;2.72;;;;;;;11.46;69.44;101113.78;3141281;28;20313;-74
2022/11/12 00:41:06;;;;;;;4.80;2.28;;;;;;;11.49;69.54;101116.31;3144511;28;20118;-74
2022/11/12 00:42:38;;;;;;;4.22;2.28;;;;;;;11.49;69.53;101107.63;3139443;28;20053;-74
2022/11/12 00:44:09;;;;;;;3.15;2.17;;;;;;;11.49;69.25;101108.47;3138293;28;20048;-74
2022/11/12 00:45:42;;;;;;;3.95;2.58;;;;;;;11.50;69.52;101101.50;3144522;28;20055;-75
2022/11/12 00:47:13;;;;;;;4.50;2.70;;;;;;;11.32;69.28;101074.19;3134867;28;20059;-75
2022/11/12 00:48:45;;;;;;;4.28;2.60;;;;;;;11.51;69.27;101109.28;3134601;28;20060;-74
2022/11/12 00:50:18;;;;;;;4.90;2.80;;;;;;;11.52;69.17;101105.78;3144249;28;20113;-74
2022/11/12 00:51:50;;;;;;;;;;;;;;;11.44;69.10;101106.88;3138302;28;20075;-74
2022/11/12 00:53:21;;;;;;;4.57;2.45;;;;;;;11.43;69.12;101106.03;3121702;28;19925;-74
2022/11/12 00:54:53;;;;;;;3.28;2.17;;;;;;;11.47;69.50;101105.03;3143177;28;20068;-75
2022/11/12 00:56:24;;;;;;;6.30;3.00;;;;;;;11.44;69.38;101099.06;3144391;28;20151;-75
2022/11/12 00:57:58;;;;;;;5.30;3.17;;;;;;;11.48;69.31;101103.31;3138962;28;20075;-75
2022/11/12 00:59:29;;;;;;;6.40;3.00;;;;;;;11.51;69.40;101103.22;3139062;28;20048;-75
2022/11/12 01:01:06;;;;;;;4.00;2.50;;;;;;;11.46;69.38;101092.91;3140778;28;20229;-75
2022/11/12 01:02:37;;;;;;;5.43;3.13;;;;;;;11.50;69.36;101102.34;3136853;28;20083;-74
2022/11/12 01:04:09;;;;;;;4.80;3.00;;;;;;;11.51;69.26;101098.00;3144237;28;20052;-75
2022/11/12 01:05:42;;;;;;;6.93;3.40;;;;;;;11.52;68.90;101097.09;3144309;28;20052;-74
2022/11/12 01:07:15;;;;;;;6.25;3.97;;;;;;;11.46;69.36;101086.84;3144252;28;20044;-75
2022/11/12 01:08:48;;;;;;;6.65;3.65;;;;;;;11.52;68.89;101092.72;3144448;28;20048;-75
2022/11/12 01:10:20;;;;;;;7.30;3.45;;;;;;;11.53;68.99;101096.19;3144317;28;20049;-75
2022/11/12 01:11:50;;;;;;;5.63;3.33;;;;;;;11.53;68.81;101091.81;3144079;28;20071;-75
2022/11/12 01:13:22;;;;;;;6.05;3.60;;;;;;;11.55;69.09;101090.03;3138748;28;20052;-75
2022/11/12 01:14:54;;;;;;;7.72;3.97;;;;;;;11.56;68.93;101083.91;3139903;28;20048;-75
2022/11/12 01:16:28;;;;;;;7.25;3.70;;;;;;;11.28;69.18;101041.28;3144191;28;20052;-75
2022/11/12 01:18:00;;;;;;;6.78;3.80;;;;;;;11.56;69.64;101083.06;3144371;28;20147;-75
2022/11/12 01:19:32;;;;;;;6.60;3.80;;;;;;;11.59;69.27;101082.97;3144103;28;20788;-75
2022/11/12 01:21:07;;;;;;;10.50;4.07;;;;;;;11.13;69.28;101009.50;3143843;28;20139;-75
2022/11/12 01:22:39;;;;;;;7.35;4.15;;;;;;;11.57;68.71;101084.78;3144424;28;20063;-75
2022/11/12 01:24:10;;;;;;;12.70;3.92;;;;;;;11.55;68.82;101077.00;3144051;28;20056;-75
2022/11/12 01:25:41;;;;;;;8.32;4.07;;;;;;;11.55;68.75;101082.22;3144240;28;20414;-75
2022/11/12 01:27:13;;;;;;;7.28;3.40;;;;;;;11.55;68.36;101070.94;3144178;28;20086;-75
2022/11/12 01:28:46;;;;;;;7.50;4.30;;;;;;;11.33;68.46;101044.63;3137514;28;20492;-75
2022/11/12 01:30:18;;;;;;;6.57;3.90;;;;;;;11.54;68.79;101080.50;3132369;28;20110;-75
2022/11/12 01:31:49;;;;;;;5.75;3.17;;;;;;;11.52;68.82;101073.63;3144076;28;20120;-75
2022/11/12 01:33:20;;;;;;;5.57;3.65;;;;;;;11.48;68.69;101072.88;3137275;28;20437;-75
2022/11/12 01:34:52;;;;;;;6.72;3.33;;;;;;;11.50;68.66;101067.59;3144068;28;20052;-75
2022/11/12 01:36:26;;;;;;;6.47;3.40;;;;;;;11.51;68.56;101071.94;3139645;28;20110;-75
2022/11/12 01:37:58;;;;;;;5.18;3.28;;;;;;;11.52;68.86;101057.97;3143434;28;20090;-75
2022/11/12 01:39:29;;;;;;;6.20;3.40;;;;;;;11.53;69.00;101063.13;3142751;28;20805;-75
2022/11/12 01:41:00;;;;;;;6.10;4.10;;;;;;;11.55;69.00;101063.09;3144291;28;20074;-75
2022/11/12 01:42:33;;;;;;;4.70;3.28;;;;;;;11.55;68.78;101066.56;3142724;28;20049;-75
2022/11/12 01:44:12;;;;;;;6.95;3.40;;;;;;;11.55;69.18;101061.34;3140023;28;20040;-75
2022/11/12 01:45:49;;;;;;;6.40;3.80;;;;;;;11.56;69.24;101062.19;3146537;28;20493;-75
2022/11/12 01:47:24;;;;;;;7.40;3.60;;;;;;;11.56;69.24;101062.19;3144098;28;20056;-76
2022/11/12 01:49:00;;;;;;;6.63;4.32;;;;;;;11.55;69.36;101063.09;3138350;28;20059;-75
2022/11/12 01:50:35;;;;;;;6.45;3.83;;;;;;;11.55;69.93;101065.72;3146445;28;20332;-74
2022/11/12 01:52:16;;;;;;;8.05;4.00;;;;;;;11.53;69.74;101070.94;3146492;28;20053;-74
2022/11/12 01:53:51;;;;;;;7.60;4.15;;;;;;;11.49;69.99;101064.13;3142681;28;20045;-74
2022/11/12 01:55:28;;;;;;;7.63;4.43;;;;;;;11.49;70.22;101071.94;3146208;28;20136;-74
2022/11/12 01:57:00;;;;;;;5.85;3.97;;;;;;;11.21;70.41;101024.94;3146370;28;20117;-74
2022/11/12 01:58:33;;;;;;;7.78;4.25;;;;;;;11.44;70.76;101063.41;3137010;28;20106;-74
2022/11/12 02:00:08;;;;;;;5.55;3.78;;;;;;;11.50;70.76;101062.38;3134982;28;20045;-74
2022/11/12 02:01:41;;;;;;;6.85;3.47;;;;;;;11.44;70.84;101057.34;3133400;28;20068;-74
2022/11/12 02:03:19;;;;;;;6.85;4.15;;;;;;;11.48;70.93;101064.19;3133417;28;20048;-74
2022/11/12 02:04:51;;;;;;;8.25;4.40;;;;;;;11.49;70.97;101071.09;3133801;28;20060;-74
2022/11/12 02:06:24;;;;;;;6.57;4.15;;;;;;;11.47;71.06;101076.34;3133814;28;20726;-74
2022/11/12 02:08:00;;;;;;;8.40;4.05;;;;;;;11.44;71.32;101067.75;3133755;28;20065;-74
2022/11/12 02:09:33;;;;;;;9.32;4.45;;;;;;;11.42;71.46;101066.94;3140098;28;20563;-74
2022/11/12 02:11:13;;;;;;;7.40;3.83;;;;;;;11.34;71.76;101061.97;3146229;28;20122;-75
2022/11/12 02:14:34;;;;;;;8.70;4.53;;;;;;;11.38;71.75;101068.78;3140044;28;20052;-74
2022/11/12 02:16:08;;;;;;;7.88;4.47;;;;;;;11.38;71.91;101071.41;3145982;28;20041;-74
2022/11/12 02:17:39;;;;;;;7.65;4.28;;;;;;;11.38;72.32;101069.63;3145836;28;20067;-74
2022/11/12 02:19:14;;;;;;;8.40;3.90;;;;;;;11.38;72.18;101074.84;3146185;28;20136;-75
2022/11/12 02:20:54;;;;;;;8.55;4.15;;;;;;;11.42;71.90;101072.16;3145971;28;20182;-74
2022/11/12 02:22:27;;;;;;;6.85;4.18;;;;;;;11.36;72.33;101060.19;3146216;28;20482;-74
2022/11/12 02:24:00;;;;;;;7.30;4.47;;;;;;;11.45;72.47;101077.31;3146057;28;20061;-75
2022/11/12 02:25:32;;;;;;;7.00;4.15;;;;;;;11.43;72.08;101069.53;3137736;28;20056;-75
2022/11/12 02:27:06;;;;;;;8.37;4.70;;;;;;;11.44;72.21;101076.44;3138800;28;20052;-75
2022/11/12 02:28:37;;;;;;;9.45;4.47;;;;;;;11.44;72.36;101068.59;3137102;28;20091;-75
2022/11/12 02:30:09;;;;;;;8.32;5.05;;;;;;;11.43;72.38;101074.75;3132996;28;20044;-75
2022/11/12 02:31:41;;;;;;;8.52;4.78;;;;;;;11.44;72.56;101072.97;3146024;28;20044;-75
2022/11/12 02:33:12;;;;;;;9.55;5.22;;;;;;;11.41;72.37;101073.91;3139382;28;20051;-75
2022/11/12 02:34:44;;;;;;;9.52;4.70;;;;;;;11.38;72.61;101074.00;3146243;28;20048;-75
2022/11/12 02:36:16;;;;;;;6.95;4.70;;;;;;;11.39;72.58;101076.59;3142129;28;20056;-75
2022/11/12 02:37:49;;;;;;;9.50;5.20;;;;;;;11.36;72.87;101081.03;3140347;28;20049;-75
2022/11/12 02:39:21;;;;;;;10.70;5.82;;;;;;;11.32;73.04;101071.56;3142709;28;20057;-75
2022/11/12 02:40:52;;;;;;;9.82;6.13;;;;;;;11.28;73.10;101076.03;3139637;28;20048;-75
2022/11/12 02:42:23;;;;;;;10.10;5.90;;;;;;;11.29;73.37;101076.88;3137179;28;20044;-76
2022/11/12 02:43:55;;;;;;;9.95;6.18;;;;;;;11.29;73.02;101082.09;3134934;28;20049;-74
2022/11/12 02:45:27;;;;;;;10.15;5.97;;;;;;;11.27;73.21;101076.03;3136628;28;20044;-74
2022/11/12 02:46:59;;;;;;;11.00;6.60;;;;;;;11.27;73.73;101078.66;3145823;28;20110;-74
2022/11/12 02:48:30;;;;;;;9.65;6.13;;;;;;;11.25;73.30;101077.88;3134210;28;20049;-74
2022/11/12 02:50:02;;;;;;;7.97;5.15;;;;;;;11.24;73.51;101070.91;3145826;28;20044;-74
2022/11/12 02:51:34;;;;;;;11.18;6.07;;;;;;;11.22;73.50;101081.41;3145576;28;20449;-74
2022/11/12 02:53:07;;;;;;;8.18;5.40;;;;;;;11.24;74.00;101076.13;3144950;28;20052;-74
2022/11/12 02:54:39;;;;;;;9.60;5.68;;;;;;;11.22;73.77;101076.19;3142440;28;20611;-76
2022/11/12 02:56:11;;;;;;;10.85;5.75;;;;;;;11.24;73.93;101082.22;3145630;28;20063;-74
2022/11/12 02:57:42;;;;;;;9.70;5.97;;;;;;;11.26;73.68;101079.56;3142462;28;20048;-74
2022/11/12 02:59:14;;;;;;;11.30;6.35;;;;;;;11.27;73.97;101078.66;3138398;28;20418;-74
2022/11/12 03:00:47;;;;;;;12.68;5.82;;;;;;;11.20;73.72;101067.56;3145822;28;20040;-74
2022/11/12 03:02:19;;;;;;;12.70;6.55;;;;;;;11.24;73.86;101076.13;3145735;28;20055;-77
2022/11/12 03:03:50;;;;;;;10.25;6.10;;;;;;;11.18;74.25;101073.69;3145871;28;20426;-75
2022/11/12 03:05:22;;;;;;;8.48;5.25;;;;;;;11.13;74.33;101077.28;3145615;28;20127;-76
2022/11/12 03:06:54;;;;;;;11.30;5.93;;;;;;;11.11;74.24;101080.84;3133660;28;20060;-76
2022/11/12 03:08:27;;;;;;;8.90;5.57;;;;;;;10.86;74.39;101044.16;3143976;28;20060;-76
2022/11/12 03:09:59;;;;;;;10.57;5.72;;;;;;;11.04;74.56;101080.16;3145221;28;20052;-76
2022/11/12 03:11:31;;;;;;;11.63;5.25;;;;;;;10.95;74.15;101076.94;3145515;28;20060;-76
2022/11/12 03:13:02;;;;;;;9.65;5.75;;;;;;;10.96;74.45;101079.50;3142873;28;20107;-75
2022/11/12 03:14:34;;;;;;;10.02;5.55;;;;;;;10.89;74.29;101078.81;3138098;28;20045;-75
2022/11/12 03:16:06;;;;;;;9.10;5.45;;;;;;;10.90;74.27;101083.13;3145232;28;20048;-76
2022/11/12 03:17:38;;;;;;;11.93;5.80;;;;;;;10.90;74.26;101087.47;3145558;28;20098;-74
2022/11/12 03:19:09;;;;;;;10.25;6.50;;;;;;;10.86;74.31;101076.28;3145583;28;20056;-75
2022/11/12 03:20:40;;;;;;;10.50;6.07;;;;;;;10.80;74.60;101076.44;3145550;28;20041;-74
2022/11/12 03:22:12;;;;;;;10.98;6.03;;;;;;;10.82;74.43;101081.59;3133954;28;20458;-75
2022/11/12 03:23:45;;;;;;;11.25;6.20;;;;;;;10.81;74.43;101082.50;3143498;28;20063;-75
2022/11/12 03:25:16;;;;;;;11.02;6.43;;;;;;;10.74;74.63;101074.00;3145549;28;20056;-75
2022/11/12 03:26:48;;;;;;;9.55;5.88;;;;;;;10.74;74.60;101079.22;3145458;28;20051;-74
2022/11/12 03:28:20;;;;;;;11.40;6.35;;;;;;;10.70;74.67;101080.16;3142445;28;20063;-75
2022/11/12 03:29:52;;;;;;;11.75;6.05;;;;;;;10.67;75.05;101068.06;3129977;28;20099;-75
2022/11/12 03:31:23;;;;;;;9.07;6.00;;;;;;;10.68;75.02;101080.22;3145558;28;20053;-75
2022/11/12 03:32:54;;;;;;;9.80;5.70;;;;;;;10.68;74.87;101080.22;3140337;28;20063;-75
2022/11/12 03:34:26;;;;;;;10.02;5.70;;;;;;;10.65;74.88;101074.22;3143704;28;20453;-74
2022/11/12 03:35:58;;;;;;;9.15;6.10;;;;;;;10.62;75.19;101071.72;3143972;28;20097;-74
2022/11/12 03:37:30;;;;;;;9.95;5.93;;;;;;;10.62;74.87;101087.34;3140459;28;20110;-74
2022/11/12 03:39:03;;;;;;;10.20;6.40;;;;;;;10.62;74.95;101084.72;3145143;28;20052;-74
2022/11/12 03:40:34;;;;;;;9.50;6.15;;;;;;;10.58;74.93;101081.31;3144045;28;20417;-74
2022/11/12 03:42:06;;;;;;;11.35;6.43;;;;;;;10.58;75.48;101083.94;3145244;28;20045;-74
2022/11/12 03:43:38;;;;;;;11.48;6.75;;;;;;;10.57;75.32;101083.97;3134935;28;20052;-75
2022/11/12 03:45:09;;;;;;;9.88;6.55;;;;;;;10.54;75.62;101084.91;3145099;28;20049;-75
2022/11/12 03:46:41;;;;;;;11.65;6.38;;;;;;;10.54;75.88;101081.44;3145195;28;20052;-75
2022/11/12 03:48:12;;;;;;;15.20;6.57;;;;;;;10.53;75.60;101091.03;3135604;28;20537;-75
2022/11/12 03:49:43;;;;;;;10.98;6.43;;;;;;;10.51;75.90;101084.97;3143374;28;20057;-74
2022/11/12 03:51:17;;;;;;;11.30;6.68;;;;;;;10.52;75.73;101088.44;3144624;28;20097;-74
2022/11/12 03:52:50;;;;;;;11.25;6.85;;;;;;;10.21;75.81;101037.94;3137422;28;20072;-75
2022/11/12 03:54:23;;;;;;;12.70;6.90;;;;;;;10.50;76.04;101087.59;3139428;28;20103;-74
2022/11/12 03:55:54;;;;;;;11.10;6.45;;;;;;;10.45;76.21;101079.91;3145787;28;20075;-74
2022/11/12 03:57:25;;;;;;;15.43;7.03;;;;;;;10.48;76.28;101090.28;3144781;28;20048;-74
2022/11/12 03:58:56;;;;;;;12.95;6.65;;;;;;;10.46;75.98;101087.69;3135219;28;20102;-74
2022/11/12 04:00:30;;;;;;;13.25;6.68;;;;;;;10.44;76.56;101078.19;3144970;28;20515;-74
2022/11/12 04:02:01;;;;;;;13.60;7.38;;;;;;;10.47;76.65;101080.75;3145723;28;20061;-76
2022/11/12 04:03:33;;;;;;;13.10;6.82;;;;;;;10.47;76.57;101085.97;3144733;28;20063;-75
2022/11/12 04:08:53;;;;;;;12.23;6.95;;;;;;;10.41;76.69;101083.47;3120069;28;20219;-74
2022/11/12 04:10:25;;;;;;;12.13;6.97;;;;;;;10.43;76.75;101086.91;3145176;28;20037;-75
2022/11/12 04:13:26;;;;;;;12.68;6.80;;;;;;;10.43;77.17;101086.91;3145023;28;20121;-75
2022/11/12 04:13:48;;;;;;;11.52;7.07;;;;;;;10.38;77.34;101081.81;3135434;28;20059;-74
2022/11/12 04:15:20;;;;;;;12.00;7.13;;;;;;;10.40;77.22;101079.16;3145209;28;20060;-76
2022/11/12 04:22:31;;;;;;;12.77;6.82;;;;;;;10.33;77.65;101090.63;3132123;28;20059;-74
2022/11/12 04:24:02;;;;;;;14.02;7.65;;;;;;;10.33;77.37;101091.50;3144797;28;20060;-74
2022/11/12 04:27:28;;;;;;;12.10;7.18;;;;;;;10.32;77.74;101088.91;3119709;28;20471;-74
2022/11/12 04:30:49;;;;;;;13.60;7.25;;;;;;;10.33;78.00;101085.44;3131055;28;20049;-74
2022/11/12 04:32:20;;;;;;;11.95;7.25;;;;;;;10.34;78.05;101090.59;3139709;28;20531;-74
2022/11/12 04:33:52;;;;;;;12.63;7.57;;;;;;;10.28;78.37;101077.72;3131886;28;20040;-74
2022/11/12 04:35:26;;;;;;;16.70;7.55;;;;;;;10.33;78.43;101082.81;3144285;28;20052;-74
2022/11/12 04:36:57;;;;;;;11.10;7.05;;;;;;;10.35;78.23;101092.31;3135180;28;20116;-74
2022/11/12 04:38:29;;;;;;;11.90;6.97;;;;;;;10.36;78.23;101085.34;3144821;28;20129;-74
2022/11/12 04:44:58;;;;;;;13.98;7.57;;;;;;;10.36;78.60;101091.41;3143998;28;20056;-74
2022/11/12 04:45:32;;;;;;;14.35;7.80;;;;;;;10.22;78.75;101077.81;3144120;28;20044;-75
2022/11/12 04:47:02;;;;;;;13.02;7.50;;;;;;;10.31;78.98;101095.00;3144422;28;20040;-74
2022/11/12 04:48:34;;;;;;;14.43;7.05;;;;;;;10.34;78.98;101093.19;3133046;28;20118;-74
2022/11/12 04:50:13;;;;;;;16.35;8.40;;;;;;;10.32;78.91;101091.50;3143927;28;20056;-74
2022/11/12 04:53:34;;;;;;;15.85;8.25;;;;;;;10.35;78.83;101107.94;3131933;28;20128;-74
2022/11/12 04:55:07;;;;;;;13.88;7.32;;;;;;;10.30;78.86;101108.94;3144819;28;20079;-74
2022/11/12 04:56:39;;;;;;;13.48;7.88;;;;;;;9.96;78.92;101057.59;3138046;28;20462;-74
2022/11/12 04:58:12;;;;;;;14.38;8.20;;;;;;;10.25;78.78;101109.00;3135518;28;20053;-74
2022/11/12 04:59:43;;;;;;;14.80;7.70;;;;;;;10.20;78.75;101103.91;3140540;28;20102;-75
2022/11/12 05:01:15;;;;;;;15.23;6.88;;;;;;;10.21;79.39;101108.22;3144352;28;20105;-74
2022/11/12 05:02:49;;;;;;;13.65;7.43;;;;;;;10.15;79.19;101105.75;3144425;28;20049;-74
2022/11/12 05:04:20;;;;;;;13.52;7.43;;;;;;;10.17;79.17;101116.13;3144095;28;20517;-73
2022/11/12 05:05:52;;;;;;;16.27;8.77;;;;;;;10.14;79.16;101116.19;3144086;28;20154;-73
2022/11/12 05:07:23;;;;;;;15.02;8.45;;;;;;;10.13;79.49;101119.69;3140394;28;20056;-74
2022/11/12 05:08:55;;;;;;;16.10;8.90;;;;;;;9.89;79.20;101082.06;3131689;28;20059;-73
2022/11/12 05:10:27;;;;;;;16.08;8.77;;;;;;;10.05;79.65;101117.25;3131423;28;20056;-72
2022/11/12 05:11:58;;;;;;;14.98;8.55;;;;;;;10.02;79.30;101125.97;3131559;28;20049;-73
2022/11/12 05:13:31;;;;;;;15.80;9.38;;;;;;;9.96;79.79;101122.66;3130929;28;20194;-74
2022/11/12 05:15:04;;;;;;;17.17;9.25;;;;;;;9.92;79.70;101123.63;3131117;28;20122;-73
2022/11/12 05:16:34;;;;;;;16.33;9.30;;;;;;;9.90;80.06;101125.38;3131308;28;20441;-74
2022/11/12 05:18:06;;;;;;;15.68;8.57;;;;;;;9.78;79.75;101113.50;3131403;28;20303;-72
2022/11/12 05:19:38;;;;;;;16.88;9.43;;;;;;;9.79;79.96;101116.06;3131318;28;20135;-72
2022/11/12 05:22:55;;;;;;;17.42;9.63;;;;;;;9.75;80.35;101118.75;3131365;28;20055;-72
2022/11/12 05:24:26;;;;;;;19.63;10.40;;;;;;;9.75;80.06;101119.59;3131443;28;20045;-71
2022/11/12 05:25:58;;;;;;;16.00;9.23;;;;;;;9.77;80.26;101128.25;3131660;28;20052;-73
2022/11/12 05:27:30;;;;;;;18.88;10.05;;;;;;;9.56;80.60;101094.88;3131494;28;20073;-72
2022/11/12 05:29:03;;;;;;;19.13;9.95;;;;;;;9.69;80.34;101113.69;3131448;28;20074;-72
2022/11/12 05:30:35;;;;;;;18.35;9.50;;;;;;;9.78;80.44;101134.31;3130385;28;20051;-71
2022/11/12 05:32:09;;;;;;;15.95;9.52;;;;;;;9.80;80.90;101142.94;3131723;28;20143;-72
2022/11/12 05:33:40;;;;;;;21.55;10.43;;;;;;;9.82;80.68;101143.78;3131184;28;20122;-71
2022/11/12 05:35:12;;;;;;;21.30;12.30;;;;;;;9.85;80.99;101142.84;3131465;28;20053;-70
2022/11/12 05:36:43;;;;;;;23.00;12.38;;;;;;;9.86;80.90;101149.78;3131671;28;20072;-73
2022/11/12 05:38:15;;;;;;;24.73;13.70;;;;;;;9.85;81.03;101151.53;3140589;28;20041;-71
2022/11/12 05:39:46;;;;;;;28.08;14.57;;;;;;;9.89;80.84;101144.50;3143837;28;20053;-73
2022/11/12 05:41:18;;;;;;;29.92;14.55;;;;;;;9.66;80.67;101114.59;3142597;28;20044;-72
2022/11/12 05:42:49;;;;;;;24.52;14.32;;;;;;;9.89;80.95;101153.16;3131646;28;20041;-71
2022/11/12 05:44:23;;;;;;;23.42;13.57;;;;;;;9.90;80.76;101161.81;3130882;28;20106;-71
2022/11/12 05:45:55;;;;;;;27.70;12.60;;;;;;;9.89;80.41;101157.50;3131049;28;20048;-71
2022/11/12 05:47:26;;;;;;;23.15;13.35;;;;;;;9.86;80.64;101161.03;3128276;28;20046;-72
2022/11/12 05:48:57;;;;;;;22.77;12.13;;;;;;;9.82;80.63;101164.59;3130705;28;20480;-71
2022/11/12 05:50:29;;;;;;;24.17;11.93;;;;;;;9.82;80.67;101172.41;3132282;28;20163;-71
2022/11/12 05:52:00;;;;;;;22.50;11.90;;;;;;;9.83;80.49;101170.66;3131732;28;20079;-69
2022/11/12 05:53:32;;;;;;;19.00;11.18;;;;;;;9.83;80.56;101183.66;3130831;28;20503;-70
2022/11/12 05:55:04;;;;;;;20.20;11.98;;;;;;;9.80;80.90;101187.16;3131554;28;20545;-70
2022/11/12 05:56:36;;;;;;;22.17;11.73;;;;;;;9.82;81.03;101201.00;3133425;28;20507;-70
2022/11/12 05:58:08;;;;;;;25.38;11.68;;;;;;;9.80;80.76;101184.56;3142130;28;20117;-74
2022/11/12 05:59:41;;;;;;;20.17;11.27;;;;;;;9.80;81.20;101189.78;3143932;28;20055;-74
2022/11/12 06:01:12;;;;;;;21.35;11.07;;;;;;;9.79;81.18;101196.72;3139396;28;20209;-71
2022/11/12 06:02:43;;;;;;;21.20;11.40;;;;;;;9.77;81.48;101203.69;3138469;28;20044;-73
2022/11/12 06:04:16;;;;;;;20.17;10.57;;;;;;;9.76;81.79;101199.38;3131121;28;20053;-75
2022/11/12 06:05:48;;;;;;;18.27;10.68;;;;;;;9.71;81.92;101195.16;3131280;28;20051;-71
2022/11/12 06:07:20;;;;;;;22.10;11.02;;;;;;;9.70;81.96;101204.72;3138084;28;20048;-73
2022/11/12 06:08:51;;;;;;;21.45;12.18;;;;;;;9.67;81.79;101204.78;3143900;28;20053;-72
2022/11/12 06:10:23;;;;;;;22.92;11.70;;;;;;;9.69;82.23;101208.19;3140976;28;20052;-72
2022/11/12 06:11:55;;;;;;;24.60;11.35;;;;;;;9.65;82.31;101206.53;3135422;28;20086;-72
2022/11/12 06:13:26;;;;;;;50.92;25.73;;;;;;;9.66;82.44;101212.59;3130218;28;20139;-69
2022/11/12 06:14:59;;;;;;;269.17;136.38;;;;;;;9.66;82.34;101216.03;3131118;28;20382;-69
2022/11/12 06:16:32;;;;;;;34.45;19.42;;;;;;;9.64;82.84;101210.00;3131107;28;20413;-68
2022/11/12 06:18:03;;;;;;;51.40;29.38;;;;;;;9.67;83.06;101219.50;3128352;28;20106;-70
2022/11/12 06:19:34;;;;;;;22.73;13.55;;;;;;;9.70;83.14;101220.31;3127957;28;20296;-71
2022/11/12 06:21:21;;;;;;;23.30;12.23;;;;;;;9.68;83.06;101218.63;3120459;28;20917;-72
2022/11/12 06:22:53;;;;;;;21.90;11.88;;;;;;;9.66;82.85;101231.66;3125308;28;20049;-73
2022/11/12 06:24:25;;;;;;;22.23;11.70;;;;;;;9.61;83.00;101223.06;3126310;28;20064;-73
2022/11/12 06:25:57;;;;;;;19.60;10.38;;;;;;;9.60;83.16;101225.72;3128331;28;20148;-70
2022/11/12 06:27:29;;;;;;;19.98;11.43;;;;;;;9.47;83.02;101215.53;3125330;28;20044;-71
2022/11/12 06:29:01;;;;;;;20.85;11.15;;;;;;;9.32;83.14;101198.47;3135116;28;20068;-75
2022/11/12 06:30:33;;;;;;;17.25;9.55;;;;;;;9.49;83.13;101225.88;3133721;28;20534;-68
2022/11/12 06:32:05;;;;;;;23.25;11.25;;;;;;;9.43;83.62;101233.81;3133035;28;20136;-67
2022/11/12 06:33:36;;;;;;;24.00;10.98;;;;;;;9.40;83.73;101241.66;3132594;28;20053;-68
2022/11/12 06:35:08;;;;;;;20.52;10.43;;;;;;;9.39;83.53;101242.56;3136709;28;20044;-69
2022/11/12 06:36:40;;;;;;;22.77;10.82;;;;;;;9.36;83.72;101234.81;3141882;28;20048;-67
2022/11/12 06:38:11;;;;;;;20.55;10.20;;;;;;;9.34;83.80;101247.81;3144543;28;20102;-70
2022/11/12 06:39:43;;;;;;;19.10;9.85;;;;;;;9.31;84.12;101242.66;3145288;28;20537;-68
2022/11/12 06:41:15;;;;;;;17.30;9.38;;;;;;;9.21;84.10;101231.56;3133084;28;20164;-71
2022/11/12 06:42:47;;;;;;;18.48;10.07;;;;;;;9.26;84.01;101241.91;3144735;28;20512;-72
2022/11/12 06:44:19;;;;;;;16.77;9.10;;;;;;;9.26;83.94;101241.91;3134885;28;20124;-73
2022/11/12 06:45:52;;;;;;;20.73;10.85;;;;;;;9.25;84.23;101246.22;3141863;28;20109;-72
2022/11/12 06:47:24;;;;;;;21.10;10.75;;;;;;;9.26;84.33;101247.97;3143120;28;20056;-70
2022/11/12 06:48:56;;;;;;;18.33;10.00;;;;;;;9.26;83.81;101242.75;3138523;28;20040;-69
2022/11/12 06:50:28;;;;;;;18.20;10.07;;;;;;;9.29;84.07;101242.72;3145383;28;20394;-70
2022/11/12 06:52:00;;;;;;;22.55;11.30;;;;;;;9.29;83.78;101250.50;3145654;28;20052;-67
2022/11/12 06:53:31;;;;;;;20.83;10.77;;;;;;;9.26;83.39;101250.56;3143557;28;20052;-65
2022/11/12 06:55:04;;;;;;;11.10;6.97;;;;;;;9.25;83.15;101263.56;3145718;28;20683;-63
2022/11/12 06:56:36;;;;;;;9.57;5.25;;;;;;;9.21;82.75;101251.50;3136499;28;20068;-65
2022/11/12 06:58:08;;;;;;;14.43;6.45;;;;;;;9.19;82.58;101251.53;3144052;28;20102;-63
2022/11/12 06:59:40;;;;;;;11.27;5.95;;;;;;;9.21;82.59;101251.50;3145713;28;20101;-65
2022/11/12 07:01:15;;;;;;;9.85;5.68;;;;;;;9.20;82.30;101255.88;3145287;28;20075;-67
2022/11/12 07:02:47;;;;;;;14.18;5.65;;;;;;;9.22;82.15;101248.03;3145917;28;20053;-65
2022/11/12 07:04:19;;;;;;;10.65;5.88;;;;;;;9.24;81.86;101246.25;3145932;28;20113;-63
2022/11/12 07:05:51;;;;;;;12.95;5.90;;;;;;;9.26;81.80;101244.50;3145168;28;20196;-66
2022/11/12 07:07:22;;;;;;;17.02;5.35;;;;;;;9.29;81.91;101245.31;3137155;28;20052;-65
2022/11/12 07:08:54;;;;;;;10.60;5.25;;;;;;;9.33;81.74;101249.56;3145562;28;20052;-65
2022/11/12 07:10:25;;;;;;;8.70;4.13;;;;;;;9.34;81.89;101248.66;3145443;28;20048;-63
2022/11/12 07:11:57;;;;;;;8.35;4.72;;;;;;;9.38;81.69;101256.44;3135714;28;20102;-62
2022/11/12 07:13:30;;;;;;;17.75;6.03;;;;;;;9.43;81.66;101259.81;3144825;28;20048;-63
2022/11/12 07:15:02;;;;;;;7.13;4.05;;;;;;;9.47;81.69;101264.09;3145528;28;20118;-63
2022/11/12 07:16:36;;;;;;;10.63;4.63;;;;;;;9.27;81.62;101226.28;3145765;28;20125;-63
2022/11/12 07:18:08;;;;;;;5.85;3.20;;;;;;;9.53;81.39;101258.78;3145170;28;20037;-65
2022/11/12 07:19:40;;;;;;;14.48;6.00;;;;;;;9.55;81.71;101249.19;3145109;28;20052;-63
2022/11/12 07:21:15;;;;;;;8.25;4.05;;;;;;;9.59;81.02;101258.66;3145152;28;20848;-63
2022/11/12 07:22:46;;;;;;;14.48;5.30;;;;;;;9.59;81.24;101255.22;3145623;28;20045;-67
2022/11/12 07:24:18;;;;;;;6.03;3.38;;;;;;;9.62;81.21;101253.41;3145242;28;20052;-71
2022/11/12 07:25:55;;;;;;;7.97;3.85;;;;;;;9.66;81.07;101265.47;3138467;28;20103;-67
2022/11/12 07:27:30;;;;;;;7.97;3.88;;;;;;;9.65;81.42;101266.34;3134604;28;20194;-64
2022/11/12 07:29:02;;;;;;;5.70;3.00;;;;;;;9.56;81.08;101243.97;3137155;28;20445;-69
2022/11/12 07:30:34;;;;;;;6.90;3.40;;;;;;;9.70;81.08;101266.25;3135929;28;20048;-69